Latest Coastal Weather Observations for Bedout Island

IDW60701

Issued at 8:03 pm WST Saturday 1 October 2016 (issued every 10 minutes, with the page automatically refreshed every 10 minutes)

About coastal observations | Map of coastal stations | Coastal observations for WA | Marine services | Other Formats
Station Details ID: 004100 Name: BEDOUT ISLAND Lat: -19.59 Lon: 119.10 Height: 8.6 m
Data from the previous 72 hours. | See also: Recent months at Bedout Island
Date/Time
WST
Temp
°C
Wind Pressure Rain since
9am
mm
Weather Cloud Vis
km
Sea
Height
m
Swell
Dir  Spd
kts
Gust
kts
hPa Trend Height
m
Period
s
Dir
01/08:00pm 21.9 WSW 13 15 1010.6 - - - - - - - - -
01/07:30pm 21.9 WSW 12 14 1010.3 - - - - - - - - -
01/07:00pm 21.7 SW 14 17 1010.2 - - - - - - - - -
01/06:30pm 22.2 SE 11 13 1009.8 - - - - - - - - -
01/06:00pm 22.3 SE 7 8 1009.4 - - - - - - - - -
01/05:30pm 22.3 SE 7 8 1009.4 - - - - - - - - -
01/05:00pm 22.5 SE 9 11 1009.3 - - - - - - - - -
01/04:30pm 23.1 SE 7 9 1009.3 - - - - - - - - -
01/03:00pm 23.0 SE 5 6 1008.7 - - - - - - - - -
01/02:00pm 22.5 SE 6 8 1009.5 - - - - - - - - -
01/12:00pm 22.2 SE 7 9 1010.6 - - - - - - - - -
01/11:30am 22.6 SE 8 9 1010.7 - - - - - - - - -
01/11:00am 22.2 SE 3 6 1011.0 - - - - - - - - -
01/08:30am 21.7 SE 9 12 1011.8 - - - - - - - - -
01/08:00am 21.7 SE 3 5 1011.6 - - - - - - - - -
01/07:30am 21.2 SE 1 4 1011.3 - - - - - - - - -
01/07:00am 21.2 SE 5 7 1010.6 - - - - - - - - -
01/06:30am 21.1 SE 6 7 1010.7 - - - - - - - - -
01/06:00am 20.8 SE 7 9 1010.3 - - - - - - - - -
01/05:30am 20.6 SE 5 7 1010.0 - - - - - - - - -
01/05:00am 20.3 SE 5 6 1009.4 - - - - - - - - -
01/04:00am 20.0 SE 2 4 1009.3 - - - - - - - - -
01/03:00am 19.8 SE 4 6 1009.5 - - - - - - - - -
01/02:30am 19.9 SE 4 6 1009.0 - - - - - - - - -
01/02:00am 19.7 SE 6 8 1008.9 - - - - - - - - -
01/01:30am 19.7 SE 6 7 1009.1 - - - - - - - - -
01/12:30am 19.2 SE 6 8 1010.0 - - - - - - - - -
01/12:00am 19.4 SE 5 7 1010.2 - - - - - - - - -
 
Date/Time
WST
Temp
°C
Wind Pressure Rain since
9am
mm
Weather Cloud Vis
km
Sea
Height
m
Swell
Dir  Spd
kts
Gust
kts
hPa Trend Height
m
Period
s
Dir
30/10:30pm 19.5 SE 8 10 1010.6 - - - - - - - - -
30/09:30pm 18.9 SE 8 10 1011.2 - - - - - - - - -
30/09:00pm 18.5 SE 8 10 1011.4 - - - - - - - - -
30/08:30pm 18.4 SE 8 9 1011.6 - - - - - - - - -
30/08:00pm 20.2 SE 6 10 1011.2 - - - - - - - - -
30/07:30pm 20.0 SE 7 10 1010.7 - - - - - - - - -
30/07:00pm 20.4 SE 12 14 1010.0 - - - - - - - - -
30/06:30pm 20.1 SE 13 16 1009.4 - - - - - - - - -
30/05:30pm 20.2 SSE 17 19 1008.6 - - - - - - - - -
30/05:00pm 19.2 SSE 17 20 1008.7 - - - - - - - - -
30/04:30pm 19.5 SSE 18 21 1009.0 - - - - - - - - -
30/04:00pm 21.2 SSE 19 22 1008.3 - - - - - - - - -
30/03:43pm 21.1 SSE 21 22 1008.5 - - - - - - - - -
30/03:30pm 22.1 E 20 24 1008.5 - - - - - - - - -
30/03:00pm 25.3 E 17 21 1008.4 - - - - - - - - -
30/02:30pm 25.6 E 14 19 1008.5 - - - - - - - - -
30/02:00pm 25.3 E 15 18 1008.8 - - - - - - - - -
30/01:30pm 25.4 E 12 14 1008.8 - - - - - - - - -
30/01:00pm 25.8 E 11 13 1009.0 - - - - - - - - -
30/12:30pm 26.1 E 10 12 1009.2 - - - - - - - - -
30/12:00pm 25.9 E 12 13 1009.9 - - - - - - - - -
30/11:30am 26.6 E 9 11 1010.4 - - - - - - - - -
30/11:00am 26.3 E 9 11 1010.8 - - - - - - - - -
30/10:30am 26.3 E 10 12 1011.1 - - - - - - - - -
30/10:00am 26.3 E 11 13 1011.2 - - - - - - - - -
30/09:30am 26.3 E 11 13 1011.5 - - - - - - - - -
30/09:00am 26.1 E 10 13 1011.6 - - - - - - - - -
30/08:30am 26.2 E 9 11 1011.4 - - - - - - - - -
30/08:00am 25.0 E 9 11 1011.1 - - - - - - - - -
30/07:30am 23.9 E 9 11 1011.1 - - - - - - - - -
30/07:00am 23.3 E 10 11 1011.1 - - - - - - - - -
30/06:30am 22.9 E 9 11 1011.0 - - - - - - - - -
30/06:00am 22.9 E 7 8 1010.6 - - - - - - - - -
30/05:30am 22.7 E 8 9 1010.4 - - - - - - - - -
30/05:00am 22.6 E 8 9 1009.6 - - - - - - - - -
30/04:30am 22.9 E 6 7 1009.7 - - - - - - - - -
30/04:00am 23.1 E 7 8 1009.5 - - - - - - - - -
30/03:00am 23.9 E 9 9 1009.3 - - - - - - - - -
30/02:30am 23.5 E 4 5 1009.0 - - - - - - - - -
30/02:00am 23.8 E 5 6 1009.2 - - - - - - - - -
30/01:30am 23.8 E 6 7 1009.4 - - - - - - - - -
30/01:00am 23.3 E 6 7 1009.6 - - - - - - - - -
30/12:30am 23.4 E 5 6 1009.7 - - - - - - - - -
30/12:00am 23.7 E 5 5 1009.8 - - - - - - - - -
 
Date/Time
WST
Temp
°C
Wind Pressure Rain since
9am
mm
Weather Cloud Vis
km
Sea
Height
m
Swell
Dir  Spd
kts
Gust
kts
hPa Trend Height
m
Period
s
Dir
29/11:30pm 24.4 E 4 4 1010.1 - - - - - - - - -
29/11:00pm 24.4 E 5 5 1010.5 - - - - - - - - -
29/10:30pm 24.3 E 7 8 1010.9 - - - - - - - - -
29/10:00pm 24.4 E 7 8 1011.1 - - - - - - - - -
29/09:30pm 24.2 E 6 7 1011.0 - - - - - - - - -
29/09:00pm 24.2 E 6 8 1010.9 - - - - - - - - -
29/08:30pm 24.4 E 7 9 1010.9 - - - - - - - - -
29/08:00pm 24.2 E 8 9 1010.6 - - - - - - - - -
29/07:30pm 24.0 E 7 8 1010.5 - - - - - - - - -
29/07:00pm 24.0 E 7 7 1010.3 - - - - - - - - -
29/06:30pm 24.2 E 7 8 1010.1 - - - - - - - - -
29/06:00pm 24.8 E 9 10 1009.8 - - - - - - - - -
29/05:30pm 25.5 E 9 10 1009.8 - - - - - - - - -
29/05:00pm 26.1 E 9 11 1009.8 - - - - - - - - -
29/04:30pm 26.7 E 10 11 1009.8 - - - - - - - - -
29/04:00pm 27.5 E 10 12 1009.7 - - - - - - - - -
29/03:30pm 27.4 E 11 13 1009.8 - - - - - - - - -
29/03:00pm 27.6 E 13 14 1009.9 - - - - - - - - -
29/02:30pm 27.5 E 14 15 1010.2 - - - - - - - - -
29/02:00pm 27.4 E 14 16 1010.6 - - - - - - - - -
29/01:30pm 27.0 E 15 17 1010.9 - - - - - - - - -
29/01:00pm 27.1 E 16 17 1011.4 - - - - - - - - -
29/12:30pm 26.8 E 16 19 1011.8 - - - - - - - - -
29/12:00pm 26.5 E 17 21 1012.0 - - - - - - - - -
29/11:30am 25.9 E 18 21 1012.7 - - - - - - - - -
29/11:00am 25.7 E 20 22 1013.3 - - - - - - - - -
29/10:30am 25.4 E 22 25 1013.6 - - - - - - - - -
29/10:00am 25.6 E 21 26 1013.8 - - - - - - - - -
29/09:30am 25.4 E 22 27 1013.8 - - - - - - - - -
29/09:00am 25.0 E 24 28 1013.8 - - - - - - - - -
29/08:30am 24.9 E 24 28 1014.0 - - - - - - - - -
29/08:00am 24.6 E 26 29 1013.9 - - - - - - - - -
29/07:30am 24.7 E 22 26 1013.7 - - - - - - - - -
29/07:00am 24.7 E 24 27 1013.1 - - - - - - - - -
29/06:30am 24.5 E 23 27 1012.7 - - - - - - - - -
29/06:00am 24.4 E 23 26 1012.0 - - - - - - - - -
29/05:30am 23.8 ESE 21 26 1011.8 - - - - - - - - -
29/05:17am 23.5 ESE 20 22 1011.6 - - - - - - - - -
29/05:16am 23.4 S 20 22 1011.6 - - - - - - - - -
29/05:00am 23.1 W 15 17 1011.5 - - - - - - - - -
29/04:30am 22.9 W 13 15 1011.2 - - - - - - - - -
29/04:00am 22.8 W 14 17 1011.1 - - - - - - - - -
29/03:00am 22.4 W 15 17 1011.0 - - - - - - - - -
29/02:30am 22.5 W 16 19 1011.0 - - - - - - - - -
29/02:00am 22.7 W 13 16 1011.3 - - - - - - - - -
29/01:30am 23.0 W 13 15 1011.5 - - - - - - - - -
29/01:00am 23.1 W 11 13 1011.7 - - - - - - - - -
29/12:30am 23.3 W 9 11 1012.0 - - - - - - - - -
 
Date/Time
WST
Temp
°C
Wind Pressure Rain since
9am
mm
Weather Cloud Vis
km
Sea
Height
m
Swell
Dir  Spd
kts
Gust
kts
hPa Trend Height
m
Period
s
Dir
28/11:30pm 23.4 W 6 7 1012.0 - - - - - - - - -
28/10:30pm 23.7 W 7 8 1012.0 - - - - - - - - -
28/09:30pm 23.7 W 8 9 1012.1 - - - - - - - - -
28/09:00pm 23.7 W 7 9 1012.0 - - - - - - - - -
28/08:30pm 23.9 W 9 11 1011.9 - - - - - - - - -

Other Formats:

Comma delimited format used in spreadsheet applications
http://www.bom.gov.au/fwo/IDW60701/IDW60701.94310.axf

JavaScript Object Notation format (JSON) in row-major order
http://www.bom.gov.au/fwo/IDW60701/IDW60701.94310.json